BIKF/KEF METAR and TAF weather

Enter ICAO airport designator
Station Type Date Time Source
BIKF METAR 2022/01/26 20:30 UTC NOAA

BIKF 262030Z 15003KT 9999 VCSH FEW008CB BKN033 M03/M03 Q1009


Station Type Date Time Source
BIKF Decoded METAR 2022/01/26 20:30 UTC NOAA

Keflavikurflugvollur, Iceland (BIKF) 63-58N 022-36W 54M
Jan 26, 2022 - 03:30 PM EST / 2022.01.26 2030 UTC
Wind: from the SSE (150 degrees) at 3 MPH (3 KT):0
Visibility: greater than 7 mile(s):0
Sky conditions: mostly cloudy
Weather: showers in the vicinity; Cumulonimbus clouds observed
Temperature: 26 F (-3 C)
Dew Point: 26 F (-3 C)
Relative Humidity: 100%
Pressure (altimeter): 29.80 in. Hg (1009 hPa)
ob: BIKF 262030Z 15003KT 9999 VCSH FEW008CB BKN033 M03/M03 Q1009
cycle: 20

Station Type Date Time Source
BIKF TAF 2022/01/26 21:51 UTC NOAA

TAF TAF BIKF 261947Z 2621/2721 27008KT 9999 BKN020 TX03/2714Z TNM03/2700Z
TEMPO 2704/2718 1500 SHSN BKN010TCU
BECMG 2706/2708 25022G32KT
BECMG 2714/2716 22013KT
BECMG 2718/2720 20023KT -SHRA
TEMPO 2718/2721 4000 SHRA BKN010

Example: see airport list